BOX126 EDDF-EDDP
Flight info
| Callsign | BOX126 |
|---|---|
| Flight time | 0h 33m |
| Altitude | 35000 |
| Route | TOBAK8F/25C TOBAK N858 MAXOT/N0335F230 T212 LASTO T956 GOXLI GOXLI1V |
| Aircraft | B77L/H-SDE2E3GHIJ4J5M1P2RWXYZ/LB1D1 |
Departure
| Time | 2026-05-04 17:11 |
|---|---|
| Airport | Frankfurt Main Airport (EDDF) |
Arrival
| Time | 2026-05-04 17:44 |
|---|---|
| Airport | Leipzig/Halle Airport (EDDP) |
| Time | Latitude | Longitude | Altitude | Speed | Heading |
|---|---|---|---|---|---|
| 2026-05-04 16:25 | 50.03735 | 8.52775 | 348 ft | 0 kts | 340° |
| 2026-05-04 16:52 | 50.03726 | 8.52780 | 348 ft | 4 kts | 340° |
| 2026-05-04 16:52 | 50.03701 | 8.52795 | 358 ft | 4 kts | 338° |
| 2026-05-04 16:53 | 50.03655 | 8.52820 | 357 ft | 4 kts | 6° |
| 2026-05-04 16:53 | 50.03619 | 8.52728 | 356 ft | 4 kts | 70° |
| 2026-05-04 16:54 | 50.03610 | 8.52688 | 356 ft | 4 kts | 69° |
| 2026-05-04 16:55 | 50.03597 | 8.52635 | 356 ft | 0 kts | 69° |
| 2026-05-04 16:56 | 50.03619 | 8.52727 | 355 ft | 7 kts | 69° |
| 2026-05-04 16:58 | 50.03691 | 8.53419 | 352 ft | 0 kts | 69° |
| 2026-05-04 17:00 | 50.03635 | 8.53567 | 347 ft | 13 kts | 199° |
| 2026-05-04 17:00 | 50.03483 | 8.53577 | 350 ft | 8 kts | 76° |
| 2026-05-04 17:01 | 50.03573 | 8.53959 | 351 ft | 22 kts | 70° |
| 2026-05-04 17:01 | 50.03686 | 8.54431 | 354 ft | 25 kts | 70° |
| 2026-05-04 17:02 | 50.03794 | 8.54884 | 361 ft | 13 kts | 69° |
| 2026-05-04 17:02 | 50.03810 | 8.54948 | 362 ft | 4 kts | 69° |
| 2026-05-04 17:03 | 50.03813 | 8.54959 | 360 ft | 0 kts | 69° |
| 2026-05-04 17:03 | 50.03832 | 8.55041 | 363 ft | 8 kts | 70° |
| 2026-05-04 17:04 | 50.03884 | 8.55258 | 361 ft | 17 kts | 70° |
| 2026-05-04 17:04 | 50.04011 | 8.55790 | 362 ft | 28 kts | 69° |
| 2026-05-04 17:05 | 50.04149 | 8.56365 | 362 ft | 28 kts | 70° |
| 2026-05-04 17:05 | 50.04286 | 8.56935 | 371 ft | 28 kts | 69° |
| 2026-05-04 17:06 | 50.04424 | 8.57510 | 366 ft | 28 kts | 69° |
| 2026-05-04 17:06 | 50.04491 | 8.57798 | 370 ft | 26 kts | 69° |
| 2026-05-04 17:07 | 50.04536 | 8.57994 | 372 ft | 8 kts | 80° |
| 2026-05-04 17:07 | 50.04522 | 8.58051 | 370 ft | 9 kts | 131° |
| 2026-05-04 17:07 | 50.04487 | 8.58085 | 370 ft | 2 kts | 155° |
| 2026-05-04 17:07 | 50.04464 | 8.58100 | 372 ft | 5 kts | 158° |
| 2026-05-04 17:08 | 50.04426 | 8.58124 | 373 ft | 6 kts | 158° |
| 2026-05-04 17:08 | 50.04360 | 8.58059 | 373 ft | 1 kts | 251° |
| 2026-05-04 17:08 | 50.04359 | 8.58053 | 373 ft | 1 kts | 250° |
| 2026-05-04 17:09 | 50.04358 | 8.58048 | 374 ft | 0 kts | 250° |
| 2026-05-04 17:09 | 50.04357 | 8.58046 | 374 ft | 0 kts | 250° |
| 2026-05-04 17:09 | 50.04357 | 8.58045 | 372 ft | 1 kts | 250° |
| 2026-05-04 17:10 | 50.04356 | 8.58040 | 372 ft | 0 kts | 250° |
| 2026-05-04 17:10 | 50.04261 | 8.57637 | 372 ft | 94 kts | 250° |
| 2026-05-04 17:11 | 50.03912 | 8.56202 | 559 ft | 172 kts | 252° |
| 2026-05-04 17:11 | 50.03467 | 8.54429 | 1688 ft | 181 kts | 249° |
| 2026-05-04 17:11 | 50.02600 | 8.50405 | 3806 ft | 209 kts | 267° |
| 2026-05-04 17:12 | 50.02852 | 8.48133 | 4937 ft | 221 kts | 281° |
| 2026-05-04 17:12 | 50.03322 | 8.43094 | 7179 ft | 241 kts | 279° |
| 2026-05-04 17:13 | 50.07390 | 8.37178 | 10483 ft | 296 kts | 321° |
| 2026-05-04 17:14 | 50.13756 | 8.32811 | 12134 ft | 403 kts | 4° |
| 2026-05-04 17:14 | 50.16533 | 8.33830 | 12755 ft | 416 kts | 19° |
| 2026-05-04 17:14 | 50.21987 | 8.37059 | 13602 ft | 418 kts | 19° |
| 2026-05-04 17:15 | 50.24709 | 8.38745 | 13979 ft | 424 kts | 27° |
| 2026-05-04 17:15 | 50.29461 | 8.44373 | 16567 ft | 439 kts | 47° |
| 2026-05-04 17:16 | 50.32897 | 8.52452 | 18743 ft | 456 kts | 67° |
| 2026-05-04 17:16 | 50.37992 | 8.65394 | 21515 ft | 479 kts | 54° |
| 2026-05-04 17:17 | 50.40008 | 8.69616 | 22510 ft | 488 kts | 53° |
| 2026-05-04 17:17 | 50.46290 | 8.82707 | 24913 ft | 512 kts | 53° |
| 2026-05-04 17:18 | 50.48438 | 8.87195 | 25598 ft | 516 kts | 53° |
| 2026-05-04 17:18 | 50.52753 | 8.96328 | 26523 ft | 525 kts | 54° |
| 2026-05-04 17:19 | 50.57141 | 9.05644 | 27268 ft | 535 kts | 54° |
| 2026-05-04 17:19 | 50.61595 | 9.15100 | 28183 ft | 538 kts | 54° |
| 2026-05-04 17:20 | 50.66067 | 9.24618 | 28691 ft | 547 kts | 54° |
| 2026-05-04 17:20 | 50.70412 | 9.34582 | 29040 ft | 552 kts | 60° |
| 2026-05-04 17:20 | 50.72148 | 9.39877 | 29434 ft | 549 kts | 67° |
| 2026-05-04 17:21 | 50.74918 | 9.51052 | 30241 ft | 546 kts | 71° |
| 2026-05-04 17:21 | 50.77588 | 9.62279 | 30950 ft | 545 kts | 71° |
| 2026-05-04 17:22 | 50.78933 | 9.67872 | 31340 ft | 544 kts | 70° |
| 2026-05-04 17:22 | 50.80286 | 9.73451 | 31748 ft | 543 kts | 70° |
| 2026-05-04 17:23 | 50.84352 | 9.90127 | 32966 ft | 540 kts | 70° |
| 2026-05-04 17:23 | 50.85700 | 9.95675 | 33409 ft | 539 kts | 70° |
| 2026-05-04 17:23 | 50.88378 | 10.06758 | 34236 ft | 538 kts | 70° |
| 2026-05-04 17:24 | 50.89708 | 10.12289 | 34661 ft | 537 kts | 70° |
| 2026-05-04 17:24 | 50.93695 | 10.28964 | 34960 ft | 540 kts | 70° |
| 2026-05-04 17:25 | 50.95018 | 10.34520 | 34960 ft | 538 kts | 70° |
| 2026-05-04 17:25 | 50.97637 | 10.45566 | 34698 ft | 527 kts | 70° |
| 2026-05-04 17:26 | 51.00203 | 10.56443 | 33755 ft | 533 kts | 70° |
| 2026-05-04 17:26 | 51.03948 | 10.73432 | 33498 ft | 534 kts | 75° |
| 2026-05-04 17:27 | 51.05707 | 10.84758 | 30569 ft | 530 kts | 78° |
| 2026-05-04 17:27 | 51.07364 | 10.96290 | 26331 ft | 539 kts | 78° |
| 2026-05-04 17:28 | 51.08760 | 11.05689 | 23842 ft | 492 kts | 78° |
| 2026-05-04 17:29 | 51.11155 | 11.21386 | 20576 ft | 471 kts | 77° |
| 2026-05-04 17:29 | 51.13385 | 11.36098 | 18192 ft | 444 kts | 78° |
| 2026-05-04 17:30 | 51.15490 | 11.50166 | 15484 ft | 427 kts | 78° |
| 2026-05-04 17:31 | 51.16840 | 11.59252 | 13879 ft | 416 kts | 78° |
| 2026-05-04 17:31 | 51.18781 | 11.72405 | 11693 ft | 395 kts | 78° |
| 2026-05-04 17:32 | 51.20000 | 11.80715 | 10745 ft | 370 kts | 78° |
| 2026-05-04 17:33 | 51.21650 | 11.92033 | 9827 ft | 327 kts | 78° |
| 2026-05-04 17:33 | 51.22151 | 11.95485 | 9662 ft | 312 kts | 78° |
| 2026-05-04 17:34 | 51.23568 | 12.05328 | 9237 ft | 298 kts | 78° |
| 2026-05-04 17:34 | 51.24031 | 12.08558 | 8906 ft | 300 kts | 78° |
| 2026-05-04 17:35 | 51.25395 | 12.18099 | 7958 ft | 289 kts | 78° |
| 2026-05-04 17:35 | 51.26263 | 12.24338 | 7016 ft | 286 kts | 78° |
| 2026-05-04 17:35 | 51.26686 | 12.27431 | 6582 ft | 284 kts | 78° |
| 2026-05-04 17:36 | 51.27097 | 12.30451 | 6145 ft | 281 kts | 78° |
| 2026-05-04 17:36 | 51.27508 | 12.33488 | 5668 ft | 279 kts | 78° |
| 2026-05-04 17:36 | 51.27911 | 12.36509 | 5212 ft | 277 kts | 78° |
| 2026-05-04 17:36 | 51.28312 | 12.39554 | 4746 ft | 275 kts | 78° |
| 2026-05-04 17:37 | 51.28693 | 12.42495 | 4330 ft | 272 kts | 78° |
| 2026-05-04 17:37 | 51.29064 | 12.45394 | 4160 ft | 262 kts | 78° |
| 2026-05-04 17:37 | 51.29424 | 12.48229 | 4087 ft | 259 kts | 78° |
| 2026-05-04 17:37 | 51.29780 | 12.51050 | 4034 ft | 260 kts | 78° |
| 2026-05-04 17:38 | 51.30138 | 12.53885 | 4022 ft | 261 kts | 78° |
| 2026-05-04 17:38 | 51.30650 | 12.56632 | 3978 ft | 260 kts | 61° |
| 2026-05-04 17:38 | 51.31845 | 12.58772 | 3779 ft | 258 kts | 32° |
| 2026-05-04 17:38 | 51.33473 | 12.59689 | 3571 ft | 242 kts | 6° |
| 2026-05-04 17:39 | 51.36699 | 12.59885 | 3322 ft | 227 kts | 360° |
| 2026-05-04 17:39 | 51.38273 | 12.59913 | 3196 ft | 224 kts | 358° |
| 2026-05-04 17:39 | 51.39760 | 12.59338 | 3098 ft | 223 kts | 328° |
| 2026-05-04 17:40 | 51.40828 | 12.57556 | 3045 ft | 225 kts | 300° |
| 2026-05-04 17:40 | 51.41550 | 12.55312 | 3011 ft | 228 kts | 295° |
| 2026-05-04 17:40 | 51.42211 | 12.53023 | 2993 ft | 222 kts | 290° |
| 2026-05-04 17:40 | 51.42446 | 12.50615 | 3003 ft | 220 kts | 271° |
| 2026-05-04 17:41 | 51.42432 | 12.48148 | 3004 ft | 222 kts | 268° |
| 2026-05-04 17:41 | 51.42338 | 12.45691 | 2938 ft | 221 kts | 266° |
| 2026-05-04 17:41 | 51.42220 | 12.43208 | 2627 ft | 222 kts | 266° |
| 2026-05-04 17:41 | 51.42105 | 12.40777 | 2369 ft | 214 kts | 266° |
| 2026-05-04 17:42 | 51.41999 | 12.38515 | 2065 ft | 192 kts | 266° |
| 2026-05-04 17:42 | 51.41905 | 12.36493 | 1824 ft | 173 kts | 266° |
| 2026-05-04 17:42 | 51.41821 | 12.34678 | 1605 ft | 153 kts | 266° |
| 2026-05-04 17:42 | 51.41746 | 12.33060 | 1413 ft | 143 kts | 267° |
| 2026-05-04 17:43 | 51.41672 | 12.31462 | 1220 ft | 145 kts | 266° |
| 2026-05-04 17:43 | 51.41597 | 12.29837 | 1028 ft | 147 kts | 266° |
| 2026-05-04 17:43 | 51.41509 | 12.28195 | 819 ft | 147 kts | 265° |
| 2026-05-04 17:43 | 51.41445 | 12.26553 | 646 ft | 149 kts | 268° |
| 2026-05-04 17:44 | 51.41367 | 12.24924 | 483 ft | 142 kts | 266° |
| 2026-05-04 17:44 | 51.41304 | 12.23510 | 469 ft | 108 kts | 265° |
| 2026-05-04 17:44 | 51.41258 | 12.22558 | 463 ft | 64 kts | 266° |
| 2026-05-04 17:44 | 51.41233 | 12.22065 | 460 ft | 35 kts | 262° |
| 2026-05-04 17:45 | 51.41152 | 12.21722 | 459 ft | 17 kts | 233° |
| 2026-05-04 17:45 | 51.41120 | 12.21669 | 460 ft | 0 kts | 192° |
| 2026-05-04 17:46 | 51.41119 | 12.21669 | 460 ft | 1 kts | 191° |
| 2026-05-04 17:46 | 51.41055 | 12.21711 | 463 ft | 13 kts | 121° |
| 2026-05-04 17:46 | 51.41054 | 12.21862 | 462 ft | 15 kts | 83° |
| 2026-05-04 17:47 | 51.41065 | 12.22054 | 461 ft | 19 kts | 85° |
| 2026-05-04 17:47 | 51.41073 | 12.22251 | 461 ft | 8 kts | 87° |
| 2026-05-04 17:47 | 51.41073 | 12.22261 | 461 ft | 4 kts | 88° |
| 2026-05-04 17:47 | 51.41027 | 12.22336 | 462 ft | 13 kts | 163° |
| 2026-05-04 17:48 | 51.40995 | 12.22468 | 462 ft | 15 kts | 82° |
| 2026-05-04 17:48 | 51.41005 | 12.22636 | 466 ft | 15 kts | 84° |
| 2026-05-04 17:48 | 51.41013 | 12.22808 | 467 ft | 16 kts | 85° |
| 2026-05-04 17:48 | 51.41020 | 12.23000 | 470 ft | 18 kts | 88° |
| 2026-05-04 17:49 | 51.41030 | 12.23195 | 469 ft | 18 kts | 85° |
| 2026-05-04 17:49 | 51.41040 | 12.23402 | 473 ft | 20 kts | 86° |
| 2026-05-04 17:49 | 51.41050 | 12.23635 | 476 ft | 21 kts | 86° |
| 2026-05-04 17:49 | 51.41062 | 12.23892 | 467 ft | 25 kts | 85° |
| 2026-05-04 17:50 | 51.41064 | 12.24178 | 471 ft | 18 kts | 118° |
| 2026-05-04 17:50 | 51.40972 | 12.24220 | 470 ft | 10 kts | 175° |
| 2026-05-04 17:50 | 51.40885 | 12.24237 | 469 ft | 15 kts | 173° |
| 2026-05-04 17:50 | 51.40810 | 12.24247 | 468 ft | 10 kts | 170° |
| 2026-05-04 17:51 | 51.40782 | 12.24297 | 468 ft | 3 kts | 106° |
| 2026-05-04 17:51 | 51.40781 | 12.24326 | 468 ft | 0 kts | 93° |
| 2026-05-04 17:51 | 51.40781 | 12.24340 | 468 ft | 3 kts | 88° |
| 2026-05-04 17:51 | 51.40782 | 12.24348 | 468 ft | 0 kts | 83° |